Time;durP1;ratioP1;P1;durP2;ratioP2;P2;SDS_P1;SDS_P2;PMS_P1;PMS_P2;Temp;Humidity;BMP_temperature;BMP_pressure;BME280_temperature;BME280_humidity;BME280_pressure;Samples;Min_cycle;Max_cycle;Signal;HPM_P1;HPM_P2
2022/01/03 00:00:31;;;;;;;1.60;1.20;;;10.30;98.20;;;;;;5046348;28;20548;-72
2022/01/03 00:03:00;;;;;;;1.60;1.20;;;10.30;98.20;;;;;;5047135;28;21099;-72
2022/01/03 00:05:28;;;;;;;1.63;1.30;;;10.30;98.20;;;;;;5042221;28;20492;-72
2022/01/03 00:07:55;;;;;;;1.63;1.20;;;10.40;98.20;;;;;;5049736;28;20583;-71
2022/01/03 00:10:22;;;;;;;1.63;1.10;;;10.40;98.20;;;;;;5037011;28;20533;-71
2022/01/03 00:12:50;;;;;;;1.60;1.20;;;10.40;98.20;;;;;;5050072;28;20511;-71
2022/01/03 00:15:18;;;;;;;1.60;1.17;;;10.40;98.20;;;;;;5042189;28;20524;-71
2022/01/03 00:17:48;;;;;;;1.60;1.10;;;10.50;98.20;;;;;;5050476;28;20477;-71
2022/01/03 00:20:16;;;;;;;1.63;1.13;;;10.50;98.20;;;;;;5037419;28;20479;-71
2022/01/03 00:22:45;;;;;;;1.70;1.50;;;10.50;98.20;;;;;;5034812;28;20474;-71
2022/01/03 00:25:17;;;;;;;1.60;1.20;;;10.50;98.20;;;;;;5039270;28;20463;-71
2022/01/03 00:27:49;;;;;;;1.60;1.10;;;10.50;98.20;;;;;;5033705;28;21109;-70
2022/01/03 00:30:19;;;;;;;1.60;1.10;;;10.50;98.20;;;;;;5042755;28;20470;-73
2022/01/03 00:32:50;;;;;;;1.60;1.10;;;10.60;98.20;;;;;;5057880;28;21023;-71
2022/01/03 00:35:18;;;;;;;1.63;1.23;;;10.60;98.20;;;;;;5042536;28;20464;-71
2022/01/03 00:37:46;;;;;;;1.60;1.13;;;10.50;98.20;;;;;;5048700;28;20561;-71
2022/01/03 00:40:13;;;;;;;1.67;1.20;;;10.50;98.20;;;;;;5043037;28;20463;-71
2022/01/03 00:42:41;;;;;;;1.60;1.10;;;10.50;98.20;;;;;;5031754;28;20978;-71
2022/01/03 00:45:09;;;;;;;1.60;1.20;;;10.50;98.20;;;;;;5041595;28;20830;-71
2022/01/03 00:47:36;;;;;;;1.67;1.20;;;10.50;98.20;;;;;;5053395;28;20481;-71
2022/01/03 00:50:08;;;;;;;1.67;1.20;;;10.50;98.20;;;;;;5045398;28;20961;-71
2022/01/03 00:52:35;;;;;;;1.60;1.10;;;10.50;98.20;;;;;;5029661;28;20478;-71
2022/01/03 00:55:03;;;;;;;1.63;1.20;;;10.50;98.20;;;;;;5043263;28;20552;-71
2022/01/03 00:57:47;;;;;;;1.67;1.30;;;10.60;98.20;;;;;;5047055;28;20484;-71
2022/01/03 01:00:15;;;;;;;2.13;1.93;;;10.60;98.20;;;;;;5045568;28;20553;-71
2022/01/03 01:02:57;;;;;;;1.60;1.20;;;10.60;98.20;;;;;;5035650;28;20486;-71
2022/01/03 01:05:25;;;;;;;1.60;1.20;;;10.50;98.20;;;;;;5043558;28;20459;-72
2022/01/03 01:07:57;;;;;;;1.60;1.10;;;10.60;98.20;;;;;;5052971;28;20481;-72
2022/01/03 01:10:27;;;;;;;1.60;1.20;;;10.50;98.20;;;;;;5043740;28;20465;-72
2022/01/03 01:12:56;;;;;;;1.60;1.10;;;10.50;98.20;;;;;;5053522;28;20916;-72
2022/01/03 01:15:24;;;;;;;1.60;1.10;;;10.50;98.20;;;;;;5044127;28;20458;-72
2022/01/03 01:17:53;;;;;;;1.60;1.20;;;10.50;98.20;;;;;;5053538;28;21028;-72
2022/01/03 01:20:21;;;;;;;1.60;1.30;;;10.50;98.20;;;;;;5045230;28;20484;-72
2022/01/03 01:22:50;;;;;;;1.60;1.10;;;10.40;98.20;;;;;;5051550;28;20568;-72
2022/01/03 01:27:45;;;;;;;1.60;1.10;;;10.40;98.20;;;;;;5044899;28;20550;-72
2022/01/03 01:28:13;;;;;;;1.63;1.20;;;10.40;98.20;;;;;;5025936;28;20986;-72
2022/01/03 01:30:41;;;;;;;1.60;1.10;;;10.40;98.20;;;;;;5048224;28;20956;-72
2022/01/03 01:33:12;;;;;;;1.67;1.10;;;10.30;98.20;;;;;;5028846;28;21116;-72
2022/01/03 01:35:46;;;;;;;1.70;1.23;;;10.30;98.20;;;;;;5048934;28;20462;-72
2022/01/03 01:38:18;;;;;;;1.60;1.20;;;10.40;98.20;;;;;;5033194;28;20553;-72
2022/01/03 01:40:48;;;;;;;1.60;1.20;;;10.40;98.20;;;;;;5048677;28;20478;-72
2022/01/03 01:43:24;;;;;;;1.60;1.10;;;10.40;98.20;;;;;;5029353;28;20577;-72
2022/01/03 01:45:52;;;;;;;1.60;1.10;;;10.40;98.20;;;;;;5034876;28;20458;-72
2022/01/03 01:48:24;;;;;;;1.63;1.10;;;10.30;98.20;;;;;;5058185;28;20459;-72
2022/01/03 01:50:52;;;;;;;1.60;1.10;;;10.30;98.20;;;;;;5035942;28;20521;-72
2022/01/03 01:53:23;;;;;;;1.60;1.20;;;10.30;98.20;;;;;;5046461;28;20450;-72
2022/01/03 01:55:52;;;;;;;1.63;1.20;;;10.30;98.20;;;;;;5037043;28;20462;-72
2022/01/03 01:58:29;;;;;;;1.60;1.10;;;10.30;98.20;;;;;;5057282;28;20897;-72
2022/01/03 02:00:58;;;;;;;1.63;1.20;;;10.30;98.20;;;;;;5035595;28;20477;-72
2022/01/03 02:03:31;;;;;;;1.60;1.10;;;10.30;98.20;;;;;;5058348;28;20467;-72
2022/01/03 02:06:08;;;;;;;1.60;1.20;;;10.20;98.20;;;;;;5035466;28;20473;-72
2022/01/03 02:08:44;;;;;;;1.60;1.10;;;10.20;98.20;;;;;;5043720;28;20541;-73
2022/01/03 02:11:19;;;;;;;1.63;1.20;;;10.10;98.20;;;;;;5032352;28;20493;-72
2022/01/03 02:13:47;;;;;;;1.63;1.20;;;10.10;98.20;;;;;;5043793;28;20454;-72
2022/01/03 02:16:14;;;;;;;1.60;1.10;;;10.10;98.20;;;;;;5029595;28;20510;-72
2022/01/03 02:18:43;;;;;;;1.63;1.20;;;10.10;98.20;;;;;;5044835;28;20471;-72
2022/01/03 02:21:12;;;;;;;1.60;1.10;;;10.10;98.20;;;;;;5032754;28;20496;-72
2022/01/03 02:23:39;;;;;;;1.60;1.10;;;10.10;98.20;;;;;;5047230;28;21015;-72
2022/01/03 02:26:05;;;;;;;1.70;1.20;;;10.10;98.20;;;;;;5035080;28;20466;-72
2022/01/03 02:28:32;;;;;;;1.70;1.20;;;10.10;98.20;;;;;;5056534;28;20483;-72
2022/01/03 02:30:59;;;;;;;1.67;1.20;;;10.00;98.20;;;;;;5033154;28;20482;-72
2022/01/03 02:33:26;;;;;;;1.60;1.10;;;10.10;98.20;;;;;;5060693;28;20850;-72
2022/01/03 02:35:53;;;;;;;1.63;1.20;;;10.00;98.20;;;;;;5029735;28;20485;-72
2022/01/03 02:38:21;;;;;;;1.60;1.20;;;10.00;98.20;;;;;;5049912;28;20455;-73
2022/01/03 02:40:49;;;;;;;1.60;1.10;;;10.10;98.20;;;;;;5032959;28;20542;-72
2022/01/03 02:43:16;;;;;;;1.60;1.10;;;10.00;98.20;;;;;;5036968;28;20555;-72
2022/01/03 02:45:43;;;;;;;1.60;1.10;;;10.10;98.20;;;;;;5044506;28;20857;-72
2022/01/03 02:48:11;;;;;;;1.60;1.20;;;10.10;98.20;;;;;;5045919;28;20561;-72
2022/01/03 02:50:39;;;;;;;1.60;1.20;;;10.10;98.20;;;;;;5044620;28;20944;-72
2022/01/03 02:53:06;;;;;;;1.67;1.20;;;10.10;98.20;;;;;;5047314;28;20556;-72
2022/01/03 02:55:34;;;;;;;1.63;1.20;;;10.10;98.20;;;;;;5040982;28;20555;-72
2022/01/03 02:58:07;;;;;;;1.60;1.20;;;10.10;98.20;;;;;;5027224;28;20998;-72
2022/01/03 03:00:36;;;;;;;1.70;1.20;;;10.20;98.20;;;;;;5040601;28;20486;-72
2022/01/03 03:03:04;;;;;;;1.70;1.20;;;10.10;98.20;;;;;;5043442;28;20488;-72
2022/01/03 03:05:31;;;;;;;1.60;1.10;;;10.10;98.20;;;;;;5041595;28;20467;-72
2022/01/03 03:07:58;;;;;;;1.67;1.17;;;10.10;98.20;;;;;;5031933;28;20674;-72
2022/01/03 03:10:26;;;;;;;1.60;1.20;;;10.00;98.20;;;;;;5042940;28;20469;-72
2022/01/03 03:12:55;;;;;;;1.60;1.20;;;10.00;98.20;;;;;;5032126;28;20482;-72
2022/01/03 03:15:22;;;;;;;1.60;1.10;;;10.00;98.20;;;;;;5042145;28;20551;-72
2022/01/03 03:17:50;;;;;;;1.60;1.20;;;10.00;98.20;;;;;;5034646;28;20477;-72
2022/01/03 03:20:18;;;;;;;1.63;1.20;;;9.90;98.20;;;;;;5038924;28;20456;-72
2022/01/03 03:22:49;;;;;;;1.70;1.30;;;9.90;98.20;;;;;;5050820;28;20478;-72
2022/01/03 03:25:18;;;;;;;1.60;1.20;;;9.90;98.20;;;;;;5037999;28;20474;-72
2022/01/03 03:27:47;;;;;;;1.70;1.20;;;9.90;98.20;;;;;;5050540;28;20492;-72
2022/01/03 03:30:18;;;;;;;1.60;1.20;;;9.90;98.20;;;;;;5039257;28;20854;-72
2022/01/03 03:32:46;;;;;;;1.60;1.20;;;9.80;98.20;;;;;;5024607;28;20490;-71
2022/01/03 03:35:14;;;;;;;1.60;1.20;;;9.80;98.20;;;;;;5042015;28;20470;-72
2022/01/03 03:37:41;;;;;;;1.60;1.10;;;9.80;98.20;;;;;;5033618;28;20479;-72
2022/01/03 03:40:09;;;;;;;1.60;1.20;;;9.80;98.20;;;;;;5045068;28;21017;-72
2022/01/03 03:42:36;;;;;;;1.67;1.30;;;9.80;98.20;;;;;;5040154;28;20478;-72
2022/01/03 03:45:04;;;;;;;1.60;1.20;;;9.80;98.20;;;;;;5044961;28;20458;-72
2022/01/03 03:47:32;;;;;;;1.60;1.20;;;9.70;98.20;;;;;;5046611;28;20477;-72
2022/01/03 03:50:00;;;;;;;1.63;1.20;;;9.70;98.20;;;;;;5039109;28;20463;-72
2022/01/03 03:52:27;;;;;;;1.70;1.30;;;9.70;98.20;;;;;;5029439;28;20478;-72
2022/01/03 03:54:53;;;;;;;1.60;1.20;;;9.70;98.20;;;;;;5045221;28;20463;-72
2022/01/03 03:57:21;;;;;;;1.63;1.20;;;9.70;98.20;;;;;;5042342;28;20980;-72
2022/01/03 03:59:47;;;;;;;1.70;1.30;;;9.70;98.20;;;;;;5036532;28;20993;-72
2022/01/03 04:02:14;;;;;;;1.60;1.20;;;9.70;98.20;;;;;;5042847;28;20566;-71
2022/01/03 04:04:43;;;;;;;1.63;1.20;;;9.70;98.20;;;;;;5042176;28;20990;-71
2022/01/03 04:07:10;;;;;;;1.60;1.20;;;9.70;98.20;;;;;;5042738;28;20496;-71
2022/01/03 04:09:36;;;;;;;1.63;1.20;;;9.70;98.20;;;;;;5050735;28;20553;-71
2022/01/03 04:12:05;;;;;;;1.60;1.20;;;9.70;98.20;;;;;;5032235;28;20859;-71
2022/01/03 04:14:32;;;;;;;1.60;1.20;;;9.70;98.20;;;;;;5031046;28;20516;-72
2022/01/03 04:16:59;;;;;;;1.60;1.20;;;9.70;98.20;;;;;;5042680;28;20488;-71
2022/01/03 04:19:26;;;;;;;1.60;1.20;;;9.70;98.20;;;;;;5046552;28;20466;-72
2022/01/03 04:21:54;;;;;;;1.60;1.20;;;9.70;98.20;;;;;;5037553;28;20541;-71
2022/01/03 04:24:21;;;;;;;1.70;1.23;;;9.70;98.20;;;;;;5048172;28;20944;-71
2022/01/03 04:26:49;;;;;;;1.70;1.30;;;9.70;98.20;;;;;;5042071;28;20585;-71
2022/01/03 04:29:16;;;;;;;1.63;1.17;;;9.70;98.20;;;;;;5040044;28;20464;-71
2022/01/03 04:31:43;;;;;;;1.60;1.20;;;9.70;98.20;;;;;;5038396;28;20485;-71
2022/01/03 04:34:10;;;;;;;1.63;1.20;;;9.70;98.20;;;;;;5054562;28;20985;-72
2022/01/03 04:36:37;;;;;;;1.70;1.30;;;9.70;98.20;;;;;;5036353;28;20557;-71
2022/01/03 04:39:06;;;;;;;1.60;1.20;;;9.70;98.20;;;;;;5050318;28;20458;-71
2022/01/03 04:41:34;;;;;;;1.70;1.23;;;9.70;98.20;;;;;;5031873;28;20505;-71
2022/01/03 04:44:05;;;;;;;1.70;1.30;;;9.70;98.20;;;;;;5041664;28;20466;-71
2022/01/03 04:46:32;;;;;;;1.60;1.20;;;9.60;98.20;;;;;;5036102;28;20478;-71
2022/01/03 04:48:59;;;;;;;1.60;1.10;;;9.60;98.20;;;;;;5054416;28;20890;-72
2022/01/03 04:51:26;;;;;;;1.60;1.20;;;9.60;98.20;;;;;;5035451;28;20479;-71
2022/01/03 04:53:53;;;;;;;1.60;1.10;;;9.70;98.20;;;;;;5044809;28;20504;-70
2022/01/03 04:56:21;;;;;;;1.67;1.20;;;9.70;98.20;;;;;;5031113;28;20481;-71
2022/01/03 04:58:49;;;;;;;1.60;1.20;;;9.70;98.20;;;;;;5043644;28;20840;-71
2022/01/03 05:01:16;;;;;;;1.60;1.20;;;9.70;98.20;;;;;;5038426;28;20496;-71
2022/01/03 05:03:43;;;;;;;1.60;1.10;;;9.70;98.20;;;;;;5054356;28;20468;-71
2022/01/03 05:06:10;;;;;;;1.67;1.20;;;9.70;98.20;;;;;;5034803;28;20482;-71
2022/01/03 05:08:37;;;;;;;1.60;1.20;;;9.70;98.20;;;;;;5042578;28;20471;-71
2022/01/03 05:11:04;;;;;;;1.60;1.10;;;9.70;98.20;;;;;;5031339;28;20513;-71
2022/01/03 05:13:33;;;;;;;1.70;1.30;;;9.70;98.20;;;;;;5043488;28;20696;-70
2022/01/03 05:16:03;;;;;;;1.70;1.30;;;9.70;98.20;;;;;;5025686;28;20550;-71
2022/01/03 05:18:30;;;;;;;1.70;1.30;;;9.60;98.20;;;;;;5049112;28;20463;-71
2022/01/03 05:20:57;;;;;;;1.70;1.30;;;9.60;98.20;;;;;;5039357;28;20483;-71
2022/01/03 05:23:24;;;;;;;1.70;1.20;;;9.60;98.20;;;;;;5056383;28;21157;-71
2022/01/03 05:25:51;;;;;;;1.70;1.30;;;9.60;98.20;;;;;;5035628;28;20839;-71
2022/01/03 05:28:18;;;;;;;1.67;1.30;;;9.70;98.20;;;;;;5042658;28;20653;-71
2022/01/03 05:30:47;;;;;;;1.67;1.20;;;9.70;98.20;;;;;;5047037;28;20529;-71
2022/01/03 05:33:14;;;;;;;1.60;1.23;;;9.70;98.20;;;;;;5022574;28;20480;-71
2022/01/03 05:35:40;;;;;;;1.60;1.10;;;9.70;98.20;;;;;;5045364;28;20466;-72
2022/01/03 05:38:07;;;;;;;1.70;1.20;;;9.70;98.20;;;;;;5024637;28;20567;-71
2022/01/03 05:40:34;;;;;;;1.63;1.20;;;9.80;98.20;;;;;;5023465;28;20577;-72
2022/01/03 05:43:01;;;;;;;1.60;1.20;;;9.80;98.20;;;;;;5029753;28;20474;-71
2022/01/03 05:45:28;;;;;;;1.67;1.30;;;9.90;98.20;;;;;;5025366;28;20466;-71
2022/01/03 05:47:56;;;;;;;1.63;1.10;;;9.90;98.20;;;;;;5030170;28;20561;-71
2022/01/03 05:50:24;;;;;;;1.60;1.23;;;9.90;98.20;;;;;;5047275;28;20463;-71
2022/01/03 05:52:51;;;;;;;1.60;1.20;;;9.90;98.20;;;;;;5031787;28;20490;-71
2022/01/03 05:55:19;;;;;;;1.70;1.30;;;10.00;98.20;;;;;;5039468;28;21109;-71
2022/01/03 05:57:46;;;;;;;1.60;1.10;;;10.00;98.20;;;;;;5051532;28;20605;-72
2022/01/03 06:00:16;;;;;;;1.60;1.10;;;10.00;98.20;;;;;;5044946;28;20485;-71
2022/01/03 06:02:43;;;;;;;1.60;1.20;;;10.00;98.20;;;;;;5046184;28;20470;-71
2022/01/03 06:05:19;;;;;;;1.67;1.20;;;10.10;98.20;;;;;;5043595;28;20458;-71
2022/01/03 06:07:46;;;;;;;1.60;1.20;;;10.10;98.20;;;;;;5034828;28;20532;-71
2022/01/03 06:10:16;;;;;;;1.67;1.30;;;10.10;98.20;;;;;;5042956;28;20839;-72
2022/01/03 06:12:45;;;;;;;1.60;1.10;;;10.10;98.20;;;;;;5046898;28;20857;-73
2022/01/03 06:15:13;;;;;;;1.60;1.10;;;10.10;98.20;;;;;;5040633;28;20991;-72
2022/01/03 06:17:40;;;;;;;1.60;1.10;;;10.10;98.20;;;;;;5047155;28;20485;-71
2022/01/03 06:20:09;;;;;;;1.60;1.10;;;10.10;98.20;;;;;;5042559;28;20466;-72
2022/01/03 06:22:39;;;;;;;1.70;1.30;;;10.10;98.20;;;;;;5045682;28;20477;-72
2022/01/03 06:25:06;;;;;;;1.67;1.20;;;10.10;98.20;;;;;;5044899;28;20455;-72
2022/01/03 06:27:32;;;;;;;1.70;1.30;;;10.10;98.20;;;;;;5049014;28;20531;-71
2022/01/03 06:30:00;;;;;;;1.67;1.30;;;10.10;98.20;;;;;;5044535;28;20477;-71
2022/01/03 06:32:27;;;;;;;1.67;1.20;;;10.10;98.20;;;;;;5044844;28;20473;-71
2022/01/03 06:34:54;;;;;;;1.60;1.20;;;10.10;98.20;;;;;;5043231;28;20458;-72
2022/01/03 06:37:21;;;;;;;1.70;1.30;;;10.10;98.20;;;;;;5040878;28;20993;-71
2022/01/03 06:39:49;;;;;;;1.60;1.10;;;10.10;98.20;;;;;;5047809;28;20497;-72
2022/01/03 06:42:16;;;;;;;1.70;1.30;;;10.00;98.20;;;;;;5028419;28;20485;-71
2022/01/03 06:44:45;;;;;;;1.60;1.20;;;10.00;98.20;;;;;;5044023;28;20860;-71
2022/01/03 06:47:12;;;;;;;1.60;1.20;;;10.00;98.20;;;;;;5034045;28;20505;-71
2022/01/03 06:49:39;;;;;;;1.60;1.20;;;10.00;98.20;;;;;;5042156;28;20466;-72
2022/01/03 06:52:06;;;;;;;1.70;1.33;;;10.00;98.20;;;;;;5032667;28;20485;-71
2022/01/03 06:54:34;;;;;;;1.60;1.10;;;9.90;98.20;;;;;;5043634;28;20780;-71
2022/01/03 06:57:02;;;;;;;1.60;1.20;;;9.90;98.20;;;;;;5041858;28;20477;-71
2022/01/03 06:59:29;;;;;;;1.60;1.20;;;9.90;98.20;;;;;;5051617;28;20458;-71
2022/01/03 07:01:56;;;;;;;1.70;1.30;;;9.90;98.20;;;;;;5041241;28;20489;-71
2022/01/03 07:04:22;;;;;;;1.63;1.20;;;9.90;98.20;;;;;;5045881;28;20456;-71
2022/01/03 07:06:49;;;;;;;1.60;1.20;;;9.90;98.20;;;;;;5041700;28;20561;-71
2022/01/03 07:09:16;;;;;;;1.60;1.20;;;9.90;98.20;;;;;;5046296;28;20455;-71
2022/01/03 07:11:43;;;;;;;1.63;1.20;;;9.90;98.20;;;;;;5040351;28;20481;-71
2022/01/03 07:19:44;;;;;;;1.60;1.10;;;10.00;98.20;;;;;;5040951;28;20461;-71
2022/01/03 07:22:12;;;;;;;1.60;1.10;;;10.00;98.20;;;;;;5033077;28;20494;-71
2022/01/03 07:24:40;;;;;;;1.60;1.20;;;10.00;98.20;;;;;;5039302;28;20501;-71
2022/01/03 07:27:09;;;;;;;1.70;1.20;;;10.00;98.20;;;;;;5038826;28;20546;-71
2022/01/03 07:29:38;;;;;;;1.60;1.20;;;10.00;98.20;;;;;;5045956;28;20520;-70
2022/01/03 07:32:06;;;;;;;1.70;1.20;;;10.00;98.20;;;;;;5042674;28;20563;-71
2022/01/03 07:34:33;;;;;;;1.60;1.20;;;10.00;98.20;;;;;;5046569;28;20489;-68
2022/01/03 07:37:00;;;;;;;2.17;1.97;;;10.00;98.20;;;;;;5030069;28;20490;-69
2022/01/03 07:39:28;;;;;;;1.60;1.13;;;10.00;98.20;;;;;;5037287;28;20702;-69
2022/01/03 07:41:55;;;;;;;1.67;1.20;;;9.90;98.20;;;;;;5035571;28;20496;-69
2022/01/03 07:44:22;;;;;;;1.70;1.30;;;9.90;98.20;;;;;;5046259;28;20459;-69
2022/01/03 07:46:51;;;;;;;1.60;1.10;;;9.90;98.20;;;;;;5029013;28;21117;-69
2022/01/03 07:49:18;;;;;;;1.63;1.20;;;9.80;98.20;;;;;;5038538;28;20462;-70
2022/01/03 07:51:45;;;;;;;1.60;1.20;;;9.80;98.20;;;;;;5030944;28;20918;-70
2022/01/03 07:54:12;;;;;;;1.70;1.20;;;9.80;98.20;;;;;;5036419;28;20487;-70
2022/01/03 07:56:39;;;;;;;1.60;1.20;;;9.80;98.20;;;;;;5035807;28;20485;-70
2022/01/03 07:59:06;;;;;;;1.60;1.10;;;9.80;98.20;;;;;;5046088;28;20458;-70
2022/01/03 08:01:34;;;;;;;1.60;1.17;;;9.80;98.20;;;;;;5036232;28;20520;-70
2022/01/03 08:04:02;;;;;;;1.60;1.10;;;9.80;98.20;;;;;;5053179;28;20451;-70
2022/01/03 08:06:29;;;;;;;1.67;1.20;;;9.80;98.20;;;;;;5033365;28;20477;-70
2022/01/03 08:08:56;;;;;;;1.70;1.27;;;9.80;98.20;;;;;;5045661;28;20833;-70
2022/01/03 08:11:23;;;;;;;1.67;1.10;;;9.80;98.20;;;;;;5036765;28;20489;-70
2022/01/03 08:13:50;;;;;;;1.70;1.23;;;9.80;98.20;;;;;;5047867;28;20497;-70
2022/01/03 08:16:17;;;;;;;1.63;1.17;;;9.80;98.20;;;;;;5036892;28;20485;-70
2022/01/03 08:18:44;;;;;;;1.60;1.10;;;9.80;98.20;;;;;;5050823;28;20506;-70
2022/01/03 08:21:14;;;;;;;1.60;1.17;;;9.80;98.20;;;;;;5036522;28;20540;-70
2022/01/03 08:23:41;;;;;;;1.63;1.20;;;9.80;98.20;;;;;;5054093;28;20499;-71
2022/01/03 08:26:08;;;;;;;1.70;1.20;;;9.80;98.20;;;;;;5032984;28;20479;-72
2022/01/03 08:28:36;;;;;;;1.70;1.20;;;9.80;98.20;;;;;;5055757;28;20459;-72
2022/01/03 08:31:03;;;;;;;1.60;1.10;;;9.90;98.20;;;;;;5032137;28;20493;-72
2022/01/03 08:33:30;;;;;;;1.60;1.20;;;9.90;98.20;;;;;;5054481;28;20869;-71
2022/01/03 08:35:58;;;;;;;1.60;1.10;;;9.90;98.20;;;;;;5027189;28;20838;-72
2022/01/03 08:38:27;;;;;;;1.60;1.10;;;9.90;98.20;;;;;;5043310;28;20463;-72
2022/01/03 08:40:53;;;;;;;1.60;1.20;;;9.90;98.20;;;;;;5028788;28;20531;-71
2022/01/03 08:43:20;;;;;;;1.60;1.20;;;10.00;98.20;;;;;;5043835;28;20511;-72
2022/01/03 08:45:48;;;;;;;1.60;1.17;;;10.00;98.20;;;;;;5041937;28;20540;-71
2022/01/03 08:48:14;;;;;;;1.60;1.17;;;10.10;98.20;;;;;;5029974;28;20602;-72
2022/01/03 08:50:41;;;;;;;1.60;1.20;;;10.10;98.20;;;;;;5042977;28;20478;-72
2022/01/03 08:53:09;;;;;;;1.60;1.20;;;10.10;98.20;;;;;;5030353;28;20486;-71
2022/01/03 08:55:37;;;;;;;1.70;1.20;;;10.20;98.20;;;;;;5037670;28;20494;-72
2022/01/03 08:58:04;;;;;;;1.60;1.20;;;10.20;98.20;;;;;;5048066;28;20516;-71
2022/01/03 09:00:31;;;;;;;1.60;1.10;;;10.30;98.20;;;;;;5044554;28;20879;-72
2022/01/03 09:02:58;;;;;;;1.60;1.10;;;10.30;98.20;;;;;;5045711;28;20513;-72
2022/01/03 09:05:25;;;;;;;1.67;1.27;;;10.30;98.20;;;;;;5042357;28;20839;-72
2022/01/03 09:07:52;;;;;;;1.60;1.13;;;10.30;98.20;;;;;;5046997;28;20481;-72
2022/01/03 09:10:19;;;;;;;1.67;1.20;;;10.30;98.20;;;;;;5038236;28;20489;-72
2022/01/03 09:12:47;;;;;;;1.60;1.17;;;10.40;98.20;;;;;;5027060;28;20489;-71
2022/01/03 09:15:15;;;;;;;1.60;1.20;;;10.40;98.20;;;;;;5038316;28;20588;-72
2022/01/03 09:17:42;;;;;;;1.60;1.20;;;10.40;98.20;;;;;;5050786;28;20527;-72
2022/01/03 09:20:10;;;;;;;1.60;1.20;;;10.50;98.20;;;;;;5048604;28;20473;-72
2022/01/03 09:22:42;;;;;;;1.60;1.20;;;10.50;98.20;;;;;;5034670;28;20489;-72
2022/01/03 09:30:40;;;;;;;1.60;1.10;;;10.60;98.20;;;;;;5047824;28;20472;-71
2022/01/03 09:33:07;;;;;;;1.70;1.23;;;10.60;98.20;;;;;;5031662;28;20540;-70
2022/01/03 09:35:34;;;;;;;1.60;1.10;;;10.60;98.20;;;;;;5044418;28;20811;-70
2022/01/03 09:38:01;;;;;;;1.60;1.20;;;10.70;98.20;;;;;;5049680;28;20568;-70
2022/01/03 09:40:28;;;;;;;1.60;1.10;;;10.80;98.20;;;;;;5042427;28;20468;-70
2022/01/03 09:43:00;;;;;;;1.63;1.10;;;10.90;98.20;;;;;;5031502;28;20529;-70
2022/01/03 09:45:32;;;;;;;1.70;1.30;;;10.90;98.20;;;;;;5043461;28;20486;-70
2022/01/03 09:48:03;;;;;;;1.67;1.20;;;11.00;98.20;;;;;;5047806;28;21074;-73
2022/01/03 09:50:33;;;;;;;1.60;1.10;;;11.10;98.20;;;;;;5043371;28;20466;-73
2022/01/03 09:53:03;;;;;;;1.60;1.20;;;11.20;98.20;;;;;;5050238;28;20469;-72
2022/01/03 09:55:33;;;;;;;1.63;1.10;;;11.20;98.20;;;;;;5043541;28;20469;-72
2022/01/03 09:58:01;;;;;;;1.60;1.10;;;11.30;98.20;;;;;;5050874;28;20481;-71
2022/01/03 10:00:28;;;;;;;1.63;1.13;;;11.40;98.20;;;;;;5043576;28;20458;-71
2022/01/03 10:02:56;;;;;;;1.60;1.10;;;11.50;98.20;;;;;;5050407;28;20481;-72
2022/01/03 10:05:26;;;;;;;1.60;1.10;;;11.60;98.20;;;;;;5044012;28;20458;-71
2022/01/03 10:07:53;;;;;;;1.60;1.10;;;11.60;98.20;;;;;;5032369;28;20482;-73
2022/01/03 10:10:20;;;;;;;1.60;1.00;;;11.60;98.20;;;;;;5042683;28;20492;-73
2022/01/03 10:12:47;;;;;;;1.63;1.10;;;11.60;98.20;;;;;;5032374;28;20493;-73
2022/01/03 10:15:16;;;;;;;1.60;1.00;;;11.60;98.20;;;;;;5042783;28;20490;-73
2022/01/03 10:17:45;;;;;;;1.67;1.20;;;11.60;98.20;;;;;;5052699;28;20477;-74
2022/01/03 10:20:13;;;;;;;1.60;1.10;;;11.60;98.20;;;;;;5045014;28;20490;-73
2022/01/03 10:22:42;;;;;;;1.63;1.30;;;11.60;98.20;;;;;;5051075;28;20655;-76
2022/01/03 10:25:18;;;;;;;1.60;1.10;;;11.60;98.20;;;;;;5046202;28;21001;-75
2022/01/03 10:27:50;;;;;;;1.63;1.10;;;11.60;98.20;;;;;;5048916;28;20495;-74
2022/01/03 10:30:32;;;;;;;1.60;1.20;;;11.60;98.20;;;;;;5045062;28;20470;-73
2022/01/03 10:32:59;;;;;;;1.60;1.10;;;11.70;98.20;;;;;;5045637;28;20568;-73
2022/01/03 10:35:27;;;;;;;1.63;1.13;;;11.70;98.20;;;;;;5046827;28;20517;-74
2022/01/03 10:37:54;;;;;;;1.60;1.10;;;11.70;98.20;;;;;;5034036;28;20478;-74
2022/01/03 10:40:27;;;;;;;1.60;1.10;;;11.80;98.20;;;;;;5047053;28;20469;-72
2022/01/03 10:42:55;;;;;;;1.60;1.10;;;11.80;98.20;;;;;;5027110;28;20490;-74
2022/01/03 10:45:33;;;;;;;1.60;1.10;;;11.80;98.20;;;;;;5041755;28;20459;-74
2022/01/03 10:48:01;;;;;;;1.60;1.10;;;11.80;98.20;;;;;;5048484;28;21013;-72
2022/01/03 10:50:29;;;;;;;1.60;1.10;;;11.80;98.20;;;;;;5041305;28;20485;-73
2022/01/03 10:52:56;;;;;;;1.60;1.10;;;11.80;98.20;;;;;;5047576;28;20668;-73
2022/01/03 10:55:29;;;;;;;1.60;1.10;;;11.80;98.20;;;;;;5043894;28;20487;-74
2022/01/03 10:57:58;;;;;;;1.60;1.10;;;11.80;98.20;;;;;;5046595;28;20609;-75
2022/01/03 11:00:29;;;;;;;1.60;1.10;;;11.80;98.20;;;;;;5043012;28;20462;-77
2022/01/03 11:03:21;;;;;;;1.60;1.10;;;11.80;98.20;;;;;;5050434;28;20473;-75
2022/01/03 11:05:52;;;;;;;1.60;1.10;;;11.80;98.20;;;;;;5036288;28;20455;-72
2022/01/03 11:11:05;;;;;;;1.60;1.10;;;11.80;98.20;;;;;;5036106;28;20496;-73
2022/01/03 11:13:33;;;;;;;1.63;1.10;;;11.90;98.20;;;;;;5054857;28;20516;-74
2022/01/03 11:16:01;;;;;;;1.63;1.17;;;12.00;98.20;;;;;;5033162;28;20473;-72
2022/01/03 11:18:31;;;;;;;1.60;1.13;;;12.00;98.20;;;;;;5048546;28;20471;-74
2022/01/03 11:21:13;;;;;;;1.60;1.20;;;12.10;98.20;;;;;;5034650;28;21064;-73
2022/01/03 11:23:43;;;;;;;1.60;1.00;;;12.10;98.20;;;;;;5053524;28;20451;-74
2022/01/03 11:26:12;;;;;;;1.60;1.10;;;12.20;98.20;;;;;;5030551;28;20989;-73
2022/01/03 11:29:04;;;;;;;1.60;1.07;;;12.20;98.20;;;;;;5051839;28;20509;-73
2022/01/03 11:31:33;;;;;;;1.60;1.00;;;12.20;98.20;;;;;;5037312;28;20858;-75
2022/01/03 11:34:02;;;;;;;1.63;1.10;;;12.30;98.20;;;;;;5048836;28;20490;-72
2022/01/03 11:36:29;;;;;;;1.60;1.10;;;12.30;98.20;;;;;;5027865;28;20563;-73
2022/01/03 11:38:57;;;;;;;1.60;1.10;;;12.20;98.20;;;;;;5043491;28;20468;-72
2022/01/03 11:41:24;;;;;;;1.60;1.00;;;12.30;98.20;;;;;;5027785;28;20486;-72
2022/01/03 11:43:51;;;;;;;1.60;1.00;;;12.30;98.20;;;;;;5038624;28;20466;-72
2022/01/03 11:46:19;;;;;;;1.60;1.10;;;12.30;98.20;;;;;;5027094;28;20495;-70
2022/01/03 11:48:47;;;;;;;1.60;1.00;;;12.30;98.20;;;;;;5040007;28;20521;-73
2022/01/03 11:51:16;;;;;;;1.60;1.00;;;12.30;98.20;;;;;;5031021;28;20541;-75
2022/01/03 11:53:45;;;;;;;1.60;1.03;;;12.30;98.20;;;;;;5055115;28;20459;-73
2022/01/03 11:56:17;;;;;;;1.60;1.10;;;12.30;98.20;;;;;;5026843;28;20522;-71
2022/01/03 11:58:58;;;;;;;1.60;1.10;;;12.30;98.20;;;;;;5039437;28;20998;-72
2022/01/03 12:04:22;;;;;;;1.60;1.10;;;12.10;98.20;;;;;;5042372;28;20466;-71
2022/01/03 12:07:02;;;;;;;1.60;1.10;;;12.10;98.20;;;;;;5044381;28;20518;-72
2022/01/03 12:09:31;;;;;;;1.60;1.10;;;12.00;98.20;;;;;;5042006;28;20901;-74
2022/01/03 12:11:58;;;;;;;1.60;1.00;;;12.00;98.20;;;;;;5033795;28;20521;-71
2022/01/03 12:14:38;;;;;;;1.60;1.10;;;12.00;98.20;;;;;;5037720;28;20494;-72
2022/01/03 12:17:07;;;;;;;1.60;1.00;;;12.00;98.20;;;;;;5040448;28;20491;-75
2022/01/03 12:19:36;;;;;;;1.60;1.10;;;11.90;98.20;;;;;;5045171;28;20473;-73
2022/01/03 12:22:12;;;;;;;1.60;1.10;;;11.90;98.20;;;;;;5037705;28;20482;-75
2022/01/03 12:24:51;;;;;;;1.60;1.00;;;11.90;98.20;;;;;;5044963;28;20494;-72
2022/01/03 12:27:41;;;;;;;1.60;1.10;;;11.90;98.20;;;;;;5043011;28;20473;-71
2022/01/03 12:30:23;;;;;;;1.60;1.03;;;11.90;98.20;;;;;;5036039;28;20466;-73
2022/01/03 12:33:13;;;;;;;1.60;1.10;;;11.80;98.20;;;;;;5048045;28;20485;-71
2022/01/03 12:35:42;;;;;;;1.60;1.10;;;11.80;98.20;;;;;;5036915;28;20862;-72
2022/01/03 12:38:27;;;;;;;1.60;1.10;;;11.80;98.20;;;;;;5046419;28;20526;-72
2022/01/03 12:40:59;;;;;;;1.60;1.10;;;11.70;98.20;;;;;;5028682;28;20826;-71
2022/01/03 12:43:50;;;;;;;1.60;1.00;;;11.60;98.20;;;;;;5039120;28;20455;-71
2022/01/03 12:46:24;;;;;;;1.60;1.10;;;11.60;98.20;;;;;;5032386;28;20482;-70
2022/01/03 12:48:52;;;;;;;1.60;1.10;;;11.40;98.20;;;;;;5051608;28;20493;-71
2022/01/03 12:51:20;;;;;;;1.63;1.10;;;11.30;98.20;;;;;;5037360;28;21014;-71
2022/01/03 12:53:50;;;;;;;1.60;1.10;;;11.20;98.20;;;;;;5053146;28;20465;-72
2022/01/03 12:56:21;;;;;;;1.60;1.10;;;11.10;98.20;;;;;;5024165;28;20714;-71
2022/01/03 12:58:51;;;;;;;1.60;1.10;;;11.00;98.20;;;;;;5055520;28;20493;-73
2022/01/03 13:01:30;;;;;;;1.60;1.10;;;10.90;98.20;;;;;;5033011;28;20536;-72
2022/01/03 13:03:59;;;;;;;1.60;1.10;;;10.80;98.20;;;;;;5043745;28;21320;-71
2022/01/03 13:06:31;;;;;;;1.60;1.10;;;10.70;98.20;;;;;;5034683;28;20521;-70
2022/01/03 13:09:11;;;;;;;1.67;1.20;;;10.60;98.20;;;;;;5043303;28;20533;-71
2022/01/03 13:11:43;;;;;;;1.60;1.20;;;10.50;98.20;;;;;;5037205;28;20485;-72
2022/01/03 13:14:14;;;;;;;1.60;1.20;;;10.50;98.20;;;;;;5041491;28;20903;-72
2022/01/03 13:16:46;;;;;;;1.60;1.20;;;10.40;98.20;;;;;;5035165;28;20492;-72